Time;durP1;ratioP1;P1;durP2;ratioP2;P2;SDS_P1;SDS_P2;PMS_P1;PMS_P2;Temp;Humidity;BMP_temperature;BMP_pressure;BME280_temperature;BME280_humidity;BME280_pressure;Samples;Min_cycle;Max_cycle;Signal;HPM_P1;HPM_P2
2023/12/27 00:00:36;;;;;;;1.15;0.50;;;;;;;;;;5016063;28;20088;-78
2023/12/27 00:03:03;;;;;;;2.22;0.82;;;;;;;;;;5006521;28;20018;-78
2023/12/27 00:05:29;;;;;;;1.50;0.80;;;;;;;;;;5016139;28;21118;-79
2023/12/27 00:07:55;;;;;;;1.20;0.70;;;;;;;;;;4987231;28;20184;-78
2023/12/27 00:10:21;;;;;;;1.17;0.80;;;;;;;;;;5006323;28;20026;-78
2023/12/27 00:12:48;;;;;;;1.48;0.77;;;;;;;;;;5024126;28;20477;-77
2023/12/27 00:15:14;;;;;;;1.52;0.90;;;;;;;;;;4998814;28;20376;-78
2023/12/27 00:17:40;;;;;;;1.83;0.90;;;;;;;;;;5001702;28;20030;-77
2023/12/27 00:20:06;;;;;;;2.45;0.90;;;;;;;;;;5007025;28;20085;-77
2023/12/27 00:22:33;;;;;;;4.72;1.00;;;;;;;;;;5012220;28;20018;-76
2023/12/27 00:25:00;;;;;;;2.70;1.08;;;;;;;;;;5003317;28;20083;-78
2023/12/27 00:27:26;;;;;;;2.22;1.05;;;;;;;;;;5013420;28;20358;-77
2023/12/27 00:29:52;;;;;;;1.38;0.80;;;;;;;;;;5019388;28;20030;-77
2023/12/27 00:32:18;;;;;;;1.05;0.90;;;;;;;;;;5021079;28;20084;-77
2023/12/27 00:34:44;;;;;;;2.00;0.80;;;;;;;;;;4997837;28;20033;-77
2023/12/27 00:37:10;;;;;;;0.77;0.60;;;;;;;;;;5014124;28;20045;-76
2023/12/27 00:39:36;;;;;;;1.23;0.80;;;;;;;;;;5019028;28;20026;-76
2023/12/27 00:42:03;;;;;;;1.10;0.57;;;;;;;;;;5023202;28;20052;-77
2023/12/27 00:44:29;;;;;;;1.17;0.73;;;;;;;;;;5005323;28;20026;-78
2023/12/27 00:46:56;;;;;;;0.70;0.50;;;;;;;;;;5014478;28;20181;-78
2023/12/27 00:49:23;;;;;;;1.83;0.80;;;;;;;;;;4983811;28;20026;-76
2023/12/27 00:51:49;;;;;;;0.50;0.50;;;;;;;;;;5015717;28;20388;-77
2023/12/27 00:54:15;;;;;;;0.57;0.50;;;;;;;;;;5002716;28;20038;-78
2023/12/27 00:56:41;;;;;;;0.90;0.70;;;;;;;;;;5018625;28;20021;-79
2023/12/27 00:59:07;;;;;;;0.63;0.60;;;;;;;;;;5011085;28;20022;-80
2023/12/27 01:01:34;;;;;;;0.40;0.40;;;;;;;;;;5013109;28;20013;-77
2023/12/27 01:04:00;;;;;;;0.40;0.40;;;;;;;;;;5020549;28;20048;-79
2023/12/27 01:06:26;;;;;;;0.40;0.40;;;;;;;;;;5005073;28;20041;-75
2023/12/27 01:08:52;;;;;;;0.52;0.40;;;;;;;;;;5004806;28;20480;-79
2023/12/27 01:11:18;;;;;;;0.40;0.40;;;;;;;;;;4999142;28;20060;-78
2023/12/27 01:13:44;;;;;;;0.98;0.40;;;;;;;;;;5027773;28;20032;-78
2023/12/27 01:16:10;;;;;;;0.57;0.50;;;;;;;;;;5012754;28;20030;-78
2023/12/27 01:18:37;;;;;;;0.65;0.43;;;;;;;;;;5003970;28;20021;-77
2023/12/27 01:21:03;;;;;;;0.20;0.20;;;;;;;;;;5000646;28;20037;-76
2023/12/27 01:23:29;;;;;;;0.60;0.50;;;;;;;;;;5011823;28;20029;-76
2023/12/27 01:25:55;;;;;;;0.32;0.32;;;;;;;;;;5014104;28;20454;-77
2023/12/27 01:28:21;;;;;;;0.40;0.40;;;;;;;;;;5011712;28;20501;-77
2023/12/27 01:30:47;;;;;;;0.68;0.35;;;;;;;;;;5022410;28;20029;-78
2023/12/27 01:33:14;;;;;;;0.40;0.40;;;;;;;;;;5013825;28;20033;-78
2023/12/27 01:35:40;;;;;;;0.60;0.60;;;;;;;;;;5003414;28;20125;-80
2023/12/27 01:38:06;;;;;;;0.38;0.38;;;;;;;;;;5011247;28;20026;-78
2023/12/27 01:40:32;;;;;;;0.22;0.20;;;;;;;;;;5019364;28;20038;-77
2023/12/27 01:42:58;;;;;;;0.20;0.20;;;;;;;;;;5001173;28;20030;-77
2023/12/27 01:45:27;;;;;;;0.68;0.30;;;;;;;;;;5028378;28;20034;-76
2023/12/27 01:47:54;;;;;;;0.50;0.32;;;;;;;;;;5003555;28;20029;-76
2023/12/27 01:50:20;;;;;;;0.32;0.30;;;;;;;;;;5002906;28;20094;-76
2023/12/27 01:52:46;;;;;;;0.40;0.40;;;;;;;;;;4997270;28;20031;-78
2023/12/27 01:55:13;;;;;;;0.35;0.30;;;;;;;;;;5019681;28;20034;-76
2023/12/27 01:57:39;;;;;;;1.42;0.60;;;;;;;;;;4991789;28;20451;-79
2023/12/27 02:00:06;;;;;;;0.85;0.63;;;;;;;;;;5015898;28;20057;-79
2023/12/27 02:02:33;;;;;;;0.40;0.40;;;;;;;;;;4995665;28;20451;-78
2023/12/27 02:04:59;;;;;;;0.43;0.40;;;;;;;;;;5008446;28;20023;-77
2023/12/27 02:07:25;;;;;;;0.63;0.50;;;;;;;;;;5012359;28;20034;-78
2023/12/27 02:09:52;;;;;;;2.15;0.40;;;;;;;;;;5005578;28;20026;-78
2023/12/27 02:12:29;;;;;;;0.50;0.50;;;;;;;;;;5012625;28;20033;-77
2023/12/27 02:14:55;;;;;;;0.57;0.40;;;;;;;;;;5023942;28;20069;-78
2023/12/27 02:17:22;;;;;;;0.40;0.35;;;;;;;;;;5020259;28;20034;-77
2023/12/27 02:19:48;;;;;;;0.38;0.28;;;;;;;;;;5014652;28;20025;-78
2023/12/27 02:22:19;;;;;;;0.60;0.40;;;;;;;;;;5022219;28;20026;-78
2023/12/27 02:24:45;;;;;;;0.35;0.32;;;;;;;;;;5017316;28;20037;-78
2023/12/27 02:27:11;;;;;;;0.50;0.40;;;;;;;;;;5000249;28;20091;-78
2023/12/27 02:29:37;;;;;;;0.30;0.30;;;;;;;;;;5013855;28;20030;-77
2023/12/27 02:32:04;;;;;;;0.38;0.35;;;;;;;;;;5015539;28;20038;-76
2023/12/27 02:34:30;;;;;;;0.35;0.35;;;;;;;;;;5002415;28;20057;-77
2023/12/27 02:36:56;;;;;;;1.75;0.20;;;;;;;;;;5011570;28;20026;-76
2023/12/27 02:39:22;;;;;;;0.65;0.40;;;;;;;;;;5009530;28;20037;-78
2023/12/27 02:41:49;;;;;;;0.20;0.20;;;;;;;;;;5009894;28;20026;-76
2023/12/27 02:44:15;;;;;;;0.52;0.25;;;;;;;;;;5018551;28;20495;-78
2023/12/27 02:46:41;;;;;;;0.17;0.10;;;;;;;;;;5018643;28;20101;-77
2023/12/27 02:49:07;;;;;;;0.30;0.30;;;;;;;;;;5009913;28;20404;-79
2023/12/27 02:51:33;;;;;;;0.30;0.30;;;;;;;;;;5016214;28;20033;-78
2023/12/27 02:53:59;;;;;;;0.20;0.20;;;;;;;;;;5025282;28;20030;-79
2023/12/27 02:56:25;;;;;;;0.28;0.20;;;;;;;;;;5025411;28;20026;-76
2023/12/27 02:58:51;;;;;;;0.30;0.28;;;;;;;;;;5030589;28;20029;-78
2023/12/27 03:01:17;;;;;;;0.20;0.20;;;;;;;;;;4999349;28;20057;-78
2023/12/27 03:03:43;;;;;;;0.20;0.20;;;;;;;;;;5019008;28;20037;-77
2023/12/27 03:06:09;;;;;;;0.32;0.20;;;;;;;;;;5008803;28;20036;-79
2023/12/27 03:08:37;;;;;;;0.20;0.20;;;;;;;;;;5025409;28;20061;-79
2023/12/27 03:11:03;;;;;;;0.20;0.20;;;;;;;;;;5025799;28;20018;-78
2023/12/27 03:13:29;;;;;;;0.20;0.20;;;;;;;;;;5014583;28;20093;-77
2023/12/27 03:15:55;;;;;;;0.52;0.15;;;;;;;;;;5001472;28;20092;-78
2023/12/27 03:18:21;;;;;;;0.20;0.20;;;;;;;;;;5016424;28;20057;-78
2023/12/27 03:20:47;;;;;;;0.55;0.30;;;;;;;;;;5024126;28;20043;-78
2023/12/27 03:23:13;;;;;;;0.30;0.30;;;;;;;;;;5007013;28;20116;-79
2023/12/27 03:25:40;;;;;;;0.32;0.32;;;;;;;;;;5007197;28;20022;-79
2023/12/27 03:28:06;;;;;;;0.20;0.20;;;;;;;;;;5006325;28;20125;-78
2023/12/27 03:30:32;;;;;;;0.55;0.30;;;;;;;;;;5015133;28;20074;-77
2023/12/27 03:32:58;;;;;;;0.52;0.30;;;;;;;;;;5000447;28;20037;-78
2023/12/27 03:35:24;;;;;;;0.52;0.30;;;;;;;;;;5010862;28;20500;-78
2023/12/27 03:37:50;;;;;;;0.30;0.30;;;;;;;;;;5018936;28;20045;-78
2023/12/27 03:40:16;;;;;;;0.45;0.30;;;;;;;;;;4987614;28;20583;-78
2023/12/27 03:42:42;;;;;;;0.50;0.28;;;;;;;;;;5023811;28;20390;-76
2023/12/27 03:45:08;;;;;;;0.20;0.20;;;;;;;;;;5027139;28;20034;-76
2023/12/27 03:47:34;;;;;;;0.60;0.30;;;;;;;;;;5017700;28;20069;-76
2023/12/27 03:50:02;;;;;;;0.10;0.10;;;;;;;;;;5021718;28;20044;-76
2023/12/27 03:52:28;;;;;;;0.70;0.10;;;;;;;;;;5014225;28;20026;-76
2023/12/27 03:54:54;;;;;;;0.43;0.22;;;;;;;;;;5000290;28;20022;-76
2023/12/27 03:57:20;;;;;;;0.20;0.15;;;;;;;;;;5000237;28;20029;-77
2023/12/27 03:59:46;;;;;;;0.20;0.10;;;;;;;;;;5022350;28;20077;-78
2023/12/27 04:02:12;;;;;;;0.20;0.20;;;;;;;;;;5000294;28;20031;-75
2023/12/27 04:04:39;;;;;;;0.52;0.20;;;;;;;;;;5018140;28;20081;-77
2023/12/27 04:07:05;;;;;;;0.28;0.08;;;;;;;;;;5025966;28;20080;-77
2023/12/27 04:09:32;;;;;;;0.47;0.20;;;;;;;;;;4997666;28;20363;-76
2023/12/27 04:11:58;;;;;;;0.10;0.10;;;;;;;;;;5001692;28;20040;-76
2023/12/27 04:14:24;;;;;;;0.20;0.20;;;;;;;;;;4991672;28;20046;-76
2023/12/27 04:16:51;;;;;;;0.17;0.10;;;;;;;;;;5017910;28;20029;-76
2023/12/27 04:19:17;;;;;;;0.28;0.20;;;;;;;;;;4998754;28;20029;-79
2023/12/27 04:21:43;;;;;;;0.20;0.20;;;;;;;;;;5016823;28;20022;-79
2023/12/27 04:24:09;;;;;;;0.20;0.20;;;;;;;;;;5024362;28;20081;-78
2023/12/27 04:26:42;;;;;;;0.30;0.25;;;;;;;;;;5023402;28;20369;-77
2023/12/27 04:29:08;;;;;;;0.15;0.10;;;;;;;;;;5018546;28;20033;-79
2023/12/27 04:31:34;;;;;;;0.03;0.03;;;;;;;;;;5022143;28;20037;-78
2023/12/27 04:34:00;;;;;;;0.20;0.20;;;;;;;;;;5033824;23;20038;-78
2023/12/27 04:36:26;;;;;;;0.10;0.10;;;;;;;;;;5037823;28;20036;-79
2023/12/27 04:38:52;;;;;;;0.05;0.05;;;;;;;;;;5049767;28;20024;-80
2023/12/27 04:41:18;;;;;;;0.20;0.20;;;;;;;;;;5044801;28;20105;-77
2023/12/27 04:43:44;;;;;;;0.25;0.20;;;;;;;;;;5060007;28;20025;-79
2023/12/27 04:46:11;;;;;;;0.20;0.20;;;;;;;;;;5021434;28;20036;-79
2023/12/27 04:48:37;;;;;;;0.10;0.10;;;;;;;;;;5027761;28;20484;-79
2023/12/27 04:51:03;;;;;;;0.10;0.10;;;;;;;;;;5032571;28;20395;-80
2023/12/27 04:53:29;;;;;;;0.10;0.10;;;;;;;;;;5034616;28;20033;-79
2023/12/27 04:55:55;;;;;;;0.20;0.20;;;;;;;;;;5032034;28;20017;-80
2023/12/27 04:58:21;;;;;;;0.17;0.17;;;;;;;;;;5028969;28;20468;-79
2023/12/27 05:00:47;;;;;;;0.10;0.10;;;;;;;;;;5034609;28;20037;-80
2023/12/27 05:03:13;;;;;;;0.40;0.20;;;;;;;;;;5025164;28;20029;-80
2023/12/27 05:05:39;;;;;;;0.10;0.10;;;;;;;;;;5035104;28;20022;-80
2023/12/27 05:08:06;;;;;;;0.10;0.10;;;;;;;;;;5031597;28;20108;-80
2023/12/27 05:10:32;;;;;;;0.10;0.10;;;;;;;;;;5036801;28;20112;-79
2023/12/27 05:12:58;;;;;;;0.10;0.10;;;;;;;;;;5041235;28;20036;-80
2023/12/27 05:15:24;;;;;;;0.40;0.22;;;;;;;;;;5034395;28;20021;-79
2023/12/27 05:17:50;;;;;;;0.20;0.20;;;;;;;;;;5036187;28;20021;-80
2023/12/27 05:20:16;;;;;;;0.47;0.35;;;;;;;;;;5038923;28;20021;-81
2023/12/27 05:22:44;;;;;;;0.20;0.20;;;;;;;;;;5033197;28;20024;-79
2023/12/27 05:25:10;;;;;;;0.30;0.30;;;;;;;;;;5035205;28;20048;-80
2023/12/27 05:27:36;;;;;;;0.20;0.20;;;;;;;;;;5046991;28;20020;-78
2023/12/27 05:30:03;;;;;;;0.25;0.20;;;;;;;;;;5046720;28;20037;-81
2023/12/27 05:32:29;;;;;;;0.30;0.30;;;;;;;;;;5026517;28;20037;-79
2023/12/27 05:34:55;;;;;;;0.10;0.00;;;;;;;;;;5022513;28;20045;-79
2023/12/27 05:37:21;;;;;;;0.30;0.20;;;;;;;;;;5020586;28;20033;-79
2023/12/27 05:39:48;;;;;;;0.30;0.30;;;;;;;;;;5029657;28;20057;-80
2023/12/27 05:42:16;;;;;;;0.32;0.30;;;;;;;;;;5025288;28;20026;-79
2023/12/27 05:44:42;;;;;;;0.10;0.10;;;;;;;;;;5020998;28;20021;-80
2023/12/27 05:47:08;;;;;;;0.30;0.30;;;;;;;;;;5027377;28;20025;-80
2023/12/27 05:49:34;;;;;;;0.25;0.20;;;;;;;;;;5033781;28;20053;-80
2023/12/27 05:52:01;;;;;;;0.20;0.20;;;;;;;;;;5016803;28;20052;-79
2023/12/27 05:54:27;;;;;;;0.10;0.10;;;;;;;;;;5023420;28;20427;-80
2023/12/27 05:56:53;;;;;;;0.20;0.20;;;;;;;;;;5027960;28;20024;-79
2023/12/27 05:59:20;;;;;;;0.20;0.20;;;;;;;;;;5026990;28;20029;-80
2023/12/27 06:01:55;;;;;;;0.20;0.20;;;;;;;;;;5032033;28;20085;-78
2023/12/27 06:04:22;;;;;;;0.40;0.40;;;;;;;;;;5056340;28;20014;-77
2023/12/27 06:06:52;;;;;;;0.40;0.30;;;;;;;;;;5056325;28;20037;-77
2023/12/27 06:09:18;;;;;;;0.20;0.20;;;;;;;;;;5046078;28;20030;-77
2023/12/27 06:11:45;;;;;;;0.50;0.40;;;;;;;;;;5049145;28;20042;-77
2023/12/27 06:14:11;;;;;;;0.30;0.30;;;;;;;;;;5038298;28;20037;-79
2023/12/27 06:16:37;;;;;;;0.47;0.20;;;;;;;;;;5044380;28;20047;-77
2023/12/27 06:19:03;;;;;;;0.40;0.30;;;;;;;;;;5024401;28;20033;-79
2023/12/27 06:21:29;;;;;;;0.35;0.28;;;;;;;;;;5022858;28;20480;-78
2023/12/27 06:23:55;;;;;;;0.43;0.38;;;;;;;;;;5023949;28;20034;-79
2023/12/27 06:26:22;;;;;;;0.20;0.20;;;;;;;;;;5034639;28;20033;-81
2023/12/27 06:28:49;;;;;;;0.20;0.20;;;;;;;;;;5033386;28;20041;-80
2023/12/27 06:31:18;;;;;;;0.30;0.30;;;;;;;;;;5027444;28;20026;-80
2023/12/27 06:33:44;;;;;;;0.30;0.30;;;;;;;;;;5028551;28;20025;-79
2023/12/27 06:36:10;;;;;;;0.20;0.20;;;;;;;;;;5037060;28;20037;-79
2023/12/27 06:38:37;;;;;;;0.30;0.30;;;;;;;;;;5025411;28;20028;-79
2023/12/27 06:41:03;;;;;;;0.30;0.30;;;;;;;;;;5037032;28;20029;-80
2023/12/27 06:43:29;;;;;;;0.75;0.30;;;;;;;;;;5024499;28;20036;-80
2023/12/27 06:45:55;;;;;;;0.30;0.30;;;;;;;;;;5044430;28;20040;-80
2023/12/27 06:48:21;;;;;;;0.32;0.30;;;;;;;;;;5041147;28;20044;-78
2023/12/27 06:50:48;;;;;;;0.20;0.17;;;;;;;;;;5041009;28;20030;-79
2023/12/27 06:53:14;;;;;;;0.20;0.20;;;;;;;;;;5040089;28;20048;-79
2023/12/27 06:55:40;;;;;;;0.10;0.10;;;;;;;;;;5031212;28;20022;-80
2023/12/27 06:58:06;;;;;;;0.20;0.20;;;;;;;;;;5034587;28;20032;-80
2023/12/27 07:00:35;;;;;;;0.30;0.30;;;;;;;;;;5024852;28;20034;-80
2023/12/27 07:03:01;;;;;;;0.38;0.38;;;;;;;;;;5034554;28;20030;-79
2023/12/27 07:05:27;;;;;;;0.20;0.20;;;;;;;;;;5032478;28;20042;-78
2023/12/27 07:07:53;;;;;;;0.45;0.35;;;;;;;;;;5030937;28;20085;-79
2023/12/27 07:10:19;;;;;;;0.55;0.50;;;;;;;;;;5036175;28;20026;-79
2023/12/27 07:12:45;;;;;;;0.30;0.30;;;;;;;;;;5038583;28;20025;-78
2023/12/27 07:15:11;;;;;;;0.80;0.57;;;;;;;;;;5031015;28;20060;-79
2023/12/27 07:17:37;;;;;;;0.43;0.30;;;;;;;;;;5026396;28;20021;-79
2023/12/27 07:20:04;;;;;;;0.52;0.50;;;;;;;;;;5024236;28;20093;-80
2023/12/27 07:22:30;;;;;;;0.40;0.35;;;;;;;;;;5027650;28;20067;-79
2023/12/27 07:24:56;;;;;;;0.40;0.40;;;;;;;;;;5025499;28;20034;-79
2023/12/27 07:27:22;;;;;;;0.40;0.40;;;;;;;;;;5033687;28;20025;-79
2023/12/27 07:29:48;;;;;;;1.30;0.50;;;;;;;;;;5026628;28;20092;-80
2023/12/27 07:32:14;;;;;;;0.55;0.40;;;;;;;;;;5033696;28;20025;-78
2023/12/27 07:34:42;;;;;;;0.60;0.50;;;;;;;;;;5022334;28;21173;-80
2023/12/27 07:37:08;;;;;;;0.40;0.40;;;;;;;;;;5040448;28;20025;-78
2023/12/27 07:39:34;;;;;;;0.50;0.32;;;;;;;;;;5030146;28;20033;-79
2023/12/27 07:42:00;;;;;;;0.73;0.57;;;;;;;;;;5033415;28;20026;-80
2023/12/27 07:44:27;;;;;;;0.22;0.22;;;;;;;;;;5039509;28;20022;-80
2023/12/27 07:46:53;;;;;;;0.50;0.50;;;;;;;;;;5033259;28;20032;-79
2023/12/27 07:49:22;;;;;;;0.40;0.40;;;;;;;;;;5040543;28;20025;-78
2023/12/27 07:51:51;;;;;;;0.60;0.50;;;;;;;;;;5029657;28;20102;-79
2023/12/27 07:54:19;;;;;;;0.55;0.50;;;;;;;;;;5029408;28;20035;-80
2023/12/27 07:56:45;;;;;;;0.32;0.32;;;;;;;;;;5041190;28;20032;-81
2023/12/27 07:59:11;;;;;;;0.68;0.50;;;;;;;;;;5035008;28;20025;-81
2023/12/27 08:01:37;;;;;;;0.90;0.63;;;;;;;;;;5031273;28;20049;-80
2023/12/27 08:04:03;;;;;;;0.55;0.40;;;;;;;;;;5032560;28;20084;-79
2023/12/27 08:06:30;;;;;;;0.68;0.60;;;;;;;;;;5039962;28;20157;-80
2023/12/27 08:08:56;;;;;;;0.38;0.38;;;;;;;;;;5040036;28;20523;-80
2023/12/27 08:11:22;;;;;;;0.38;0.30;;;;;;;;;;5040632;28;20040;-80
2023/12/27 08:13:48;;;;;;;0.40;0.40;;;;;;;;;;5030315;28;20025;-78
2023/12/27 08:16:14;;;;;;;1.60;0.50;;;;;;;;;;5045881;28;20022;-79
2023/12/27 08:18:40;;;;;;;1.05;0.70;;;;;;;;;;5045979;28;20025;-78
2023/12/27 08:21:06;;;;;;;0.98;0.60;;;;;;;;;;5044671;28;20037;-79
2023/12/27 08:23:32;;;;;;;0.90;0.50;;;;;;;;;;5052518;28;20029;-79
2023/12/27 08:25:59;;;;;;;1.02;0.50;;;;;;;;;;5042230;28;20121;-78
2023/12/27 08:28:25;;;;;;;2.15;0.80;;;;;;;;;;5051093;28;20029;-78
2023/12/27 08:30:53;;;;;;;0.85;0.40;;;;;;;;;;5050470;28;20077;-78
2023/12/27 08:33:19;;;;;;;0.30;0.30;;;;;;;;;;5036549;28;20044;-80
2023/12/27 08:35:45;;;;;;;0.47;0.47;;;;;;;;;;5040801;28;20045;-80
2023/12/27 08:38:11;;;;;;;1.38;0.50;;;;;;;;;;5033440;28;20026;-79
2023/12/27 08:40:37;;;;;;;0.40;0.40;;;;;;;;;;5039638;28;20599;-80
2023/12/27 08:43:03;;;;;;;0.40;0.40;;;;;;;;;;5032573;28;20026;-79
2023/12/27 08:45:29;;;;;;;0.63;0.40;;;;;;;;;;5030824;28;20033;-80
2023/12/27 08:47:55;;;;;;;0.70;0.70;;;;;;;;;;5028879;28;20041;-80
2023/12/27 08:50:24;;;;;;;0.50;0.43;;;;;;;;;;5021113;28;20117;-79
2023/12/27 08:52:50;;;;;;;0.70;0.52;;;;;;;;;;5032188;28;20076;-79
2023/12/27 08:55:16;;;;;;;1.05;0.75;;;;;;;;;;5041125;28;20025;-80
2023/12/27 08:57:42;;;;;;;0.40;0.40;;;;;;;;;;5031727;28;20099;-80
2023/12/27 09:00:10;;;;;;;0.40;0.40;;;;;;;;;;5042894;28;20092;-80
2023/12/27 09:02:39;;;;;;;0.65;0.50;;;;;;;;;;5032482;28;20105;-81
2023/12/27 09:05:06;;;;;;;0.30;0.30;;;;;;;;;;5039196;28;20112;-81
2023/12/27 09:07:32;;;;;;;0.68;0.47;;;;;;;;;;5031555;28;20029;-80
2023/12/27 09:09:58;;;;;;;0.40;0.40;;;;;;;;;;5037769;28;20036;-79
2023/12/27 09:12:24;;;;;;;0.52;0.40;;;;;;;;;;5055499;28;20088;-77
2023/12/27 09:14:50;;;;;;;0.40;0.40;;;;;;;;;;5054945;28;20017;-78
2023/12/27 09:17:16;;;;;;;0.60;0.40;;;;;;;;;;5045465;28;20040;-80
2023/12/27 09:19:43;;;;;;;0.73;0.68;;;;;;;;;;5044350;28;20014;-77
2023/12/27 09:22:09;;;;;;;0.45;0.45;;;;;;;;;;5051410;28;20036;-79
2023/12/27 09:24:35;;;;;;;0.50;0.40;;;;;;;;;;5038446;28;20081;-79
2023/12/27 09:27:01;;;;;;;0.63;0.63;;;;;;;;;;5040809;28;20060;-79
2023/12/27 09:29:27;;;;;;;2.28;0.93;;;;;;;;;;5049449;28;20654;-78
2023/12/27 09:31:54;;;;;;;0.93;0.65;;;;;;;;;;5040374;28;20041;-79
2023/12/27 09:34:20;;;;;;;0.68;0.60;;;;;;;;;;5050428;28;20037;-79
2023/12/27 09:36:46;;;;;;;0.80;0.70;;;;;;;;;;5032946;28;20041;-78
2023/12/27 09:39:13;;;;;;;0.65;0.60;;;;;;;;;;5033207;28;20026;-77
2023/12/27 09:41:43;;;;;;;1.42;0.93;;;;;;;;;;5041186;28;20028;-79
2023/12/27 09:44:12;;;;;;;0.95;0.73;;;;;;;;;;5033128;28;20022;-78
2023/12/27 09:46:39;;;;;;;0.80;0.80;;;;;;;;;;5035767;28;20030;-79
2023/12/27 09:49:06;;;;;;;0.98;0.82;;;;;;;;;;5029454;28;20327;-79
2023/12/27 09:51:33;;;;;;;0.68;0.57;;;;;;;;;;5044013;28;20084;-79
2023/12/27 09:53:59;;;;;;;2.30;1.10;;;;;;;;;;5034931;28;20028;-78
2023/12/27 09:56:26;;;;;;;1.25;0.90;;;;;;;;;;5046757;28;20036;-76
2023/12/27 09:58:56;;;;;;;1.73;1.00;;;;;;;;;;5043345;28;20033;-77
2023/12/27 10:01:24;;;;;;;0.88;0.88;;;;;;;;;;5042472;28;20022;-78
2023/12/27 10:03:53;;;;;;;1.27;1.00;;;;;;;;;;5030829;28;20024;-79
2023/12/27 10:06:28;;;;;;;1.13;0.90;;;;;;;;;;5043616;28;20083;-79
2023/12/27 10:08:55;;;;;;;1.48;1.00;;;;;;;;;;5041732;28;20049;-79
2023/12/27 10:11:22;;;;;;;1.05;0.98;;;;;;;;;;5042674;28;20026;-78
2023/12/27 10:13:48;;;;;;;1.30;0.98;;;;;;;;;;5042386;28;20021;-80
2023/12/27 10:16:14;;;;;;;1.42;0.90;;;;;;;;;;5042561;28;20026;-79
2023/12/27 10:18:40;;;;;;;1.25;0.90;;;;;;;;;;5045899;28;20041;-78
2023/12/27 10:21:07;;;;;;;3.60;1.27;;;;;;;;;;5034823;28;20026;-80
2023/12/27 10:23:34;;;;;;;1.70;1.13;;;;;;;;;;5036133;28;20006;-78
2023/12/27 10:26:00;;;;;;;1.95;1.17;;;;;;;;;;5036575;28;20085;-80
2023/12/27 10:28:26;;;;;;;1.00;0.95;;;;;;;;;;5038301;28;20029;-79
2023/12/27 10:30:53;;;;;;;1.20;1.10;;;;;;;;;;5019914;28;20029;-81
2023/12/27 10:33:20;;;;;;;1.20;0.90;;;;;;;;;;5027746;28;20030;-78
2023/12/27 10:35:47;;;;;;;2.28;0.77;;;;;;;;;;5029030;28;20028;-79
2023/12/27 10:38:13;;;;;;;1.02;0.80;;;;;;;;;;5029420;28;20080;-78
2023/12/27 10:40:40;;;;;;;0.82;0.82;;;;;;;;;;5035519;28;20018;-80
2023/12/27 10:43:07;;;;;;;1.15;0.70;;;;;;;;;;5032734;28;20480;-79
2023/12/27 10:45:33;;;;;;;1.73;0.85;;;;;;;;;;5035141;28;20026;-80
2023/12/27 10:48:00;;;;;;;0.80;0.75;;;;;;;;;;5037201;28;20030;-78
2023/12/27 10:50:27;;;;;;;1.10;0.80;;;;;;;;;;5029264;28;20074;-78
2023/12/27 10:53:08;;;;;;;0.85;0.80;;;;;;;;;;5021701;28;20029;-80
2023/12/27 10:55:35;;;;;;;1.00;0.70;;;;;;;;;;5035707;28;20026;-80
2023/12/27 10:58:02;;;;;;;2.75;1.25;;;;;;;;;;5028547;28;20017;-81
2023/12/27 11:00:29;;;;;;;0.88;0.70;;;;;;;;;;5037531;28;20400;-80
2023/12/27 11:02:57;;;;;;;1.83;1.42;;;;;;;;;;5032398;28;20049;-78
2023/12/27 11:05:24;;;;;;;0.88;0.65;;;;;;;;;;5033296;28;20403;-79
2023/12/27 11:07:52;;;;;;;1.17;0.80;;;;;;;;;;5030216;28;20037;-80
2023/12/27 11:10:19;;;;;;;1.10;0.77;;;;;;;;;;5033896;28;20029;-78
2023/12/27 11:12:47;;;;;;;1.75;0.93;;;;;;;;;;5048073;28;20021;-80
2023/12/27 11:15:16;;;;;;;1.05;0.95;;;;;;;;;;5037752;28;20534;-79
2023/12/27 11:17:42;;;;;;;0.70;0.70;;;;;;;;;;5052251;28;20022;-78
2023/12/27 11:20:10;;;;;;;1.13;1.00;;;;;;;;;;5047511;28;20393;-80
2023/12/27 11:22:37;;;;;;;0.90;0.70;;;;;;;;;;5031616;28;20365;-77
2023/12/27 11:25:03;;;;;;;1.05;0.85;;;;;;;;;;5037205;28;20053;-80
2023/12/27 11:27:30;;;;;;;1.88;1.00;;;;;;;;;;5031568;28;20045;-80
2023/12/27 11:29:56;;;;;;;1.30;0.65;;;;;;;;;;5032829;28;20029;-79
2023/12/27 11:32:22;;;;;;;1.67;0.90;;;;;;;;;;5033231;28;20373;-78
2023/12/27 11:34:49;;;;;;;1.30;0.77;;;;;;;;;;5035787;28;20037;-79
2023/12/27 11:37:16;;;;;;;1.73;0.80;;;;;;;;;;5034956;28;20079;-80
2023/12/27 11:39:48;;;;;;;2.00;0.90;;;;;;;;;;5031604;28;20124;-80
2023/12/27 11:42:17;;;;;;;0.50;0.50;;;;;;;;;;5037940;28;20049;-80
2023/12/27 11:44:55;;;;;;;0.60;0.60;;;;;;;;;;5032588;28;20037;-79
2023/12/27 11:47:22;;;;;;;1.42;0.65;;;;;;;;;;5032909;28;20030;-80
2023/12/27 11:50:07;;;;;;;1.17;0.80;;;;;;;;;;5039632;28;20066;-79
2023/12/27 11:52:34;;;;;;;0.82;0.82;;;;;;;;;;5038614;28;20507;-78
2023/12/27 11:55:21;;;;;;;0.60;0.60;;;;;;;;;;5032524;28;20104;-78
2023/12/27 11:57:56;;;;;;;1.40;0.90;;;;;;;;;;5037951;28;20125;-77
2023/12/27 12:00:29;;;;;;;0.60;0.60;;;;;;;;;;5032660;28;20017;-80
2023/12/27 12:02:59;;;;;;;1.15;0.68;;;;;;;;;;5031391;28;20029;-79
2023/12/27 12:05:48;;;;;;;0.85;0.70;;;;;;;;;;5040517;28;20105;-79
2023/12/27 12:08:29;;;;;;;1.27;0.65;;;;;;;;;;5014600;28;20513;-79
2023/12/27 12:11:13;;;;;;;1.30;0.95;;;;;;;;;;5023728;28;20029;-79
2023/12/27 12:13:40;;;;;;;1.77;0.88;;;;;;;;;;5031410;28;20476;-79
2023/12/27 12:16:09;;;;;;;2.05;0.93;;;;;;;;;;5034755;28;20030;-78
2023/12/27 12:18:36;;;;;;;0.63;0.63;;;;;;;;;;5038581;28;20045;-78
2023/12/27 12:21:06;;;;;;;0.82;0.70;;;;;;;;;;5041666;28;20166;-80
2023/12/27 12:23:32;;;;;;;0.60;0.60;;;;;;;;;;5042158;28;20400;-79
2023/12/27 12:26:02;;;;;;;0.60;0.60;;;;;;;;;;5036497;28;20036;-78
2023/12/27 12:28:29;;;;;;;0.80;0.73;;;;;;;;;;5056937;28;20013;-77
2023/12/27 12:30:56;;;;;;;0.68;0.68;;;;;;;;;;5039930;28;20057;-79
2023/12/27 12:33:22;;;;;;;0.50;0.50;;;;;;;;;;5042192;28;20034;-79
2023/12/27 12:35:49;;;;;;;0.88;0.60;;;;;;;;;;5039834;28;20072;-80
2023/12/27 12:38:17;;;;;;;1.20;0.70;;;;;;;;;;5034535;28;20055;-79
2023/12/27 12:40:48;;;;;;;0.40;0.40;;;;;;;;;;5039221;28;20196;-78
2023/12/27 12:43:15;;;;;;;0.63;0.63;;;;;;;;;;5028665;28;20025;-78
2023/12/27 12:45:42;;;;;;;0.63;0.60;;;;;;;;;;5034303;28;20025;-78
2023/12/27 12:48:08;;;;;;;0.75;0.60;;;;;;;;;;5044706;28;20104;-80
2023/12/27 12:50:34;;;;;;;0.85;0.63;;;;;;;;;;5031398;28;20025;-79
2023/12/27 12:53:16;;;;;;;0.40;0.40;;;;;;;;;;5028733;28;20092;-80
2023/12/27 12:55:44;;;;;;;0.63;0.60;;;;;;;;;;5030638;28;20116;-79
2023/12/27 12:58:14;;;;;;;0.85;0.28;;;;;;;;;;5031699;28;20029;-79
2023/12/27 13:00:40;;;;;;;1.17;0.80;;;;;;;;;;5039229;28;20090;-79
2023/12/27 13:03:08;;;;;;;0.85;0.60;;;;;;;;;;5028841;28;20083;-80
2023/12/27 13:05:35;;;;;;;1.33;0.73;;;;;;;;;;5030035;28;20036;-80
2023/12/27 13:08:05;;;;;;;0.63;0.60;;;;;;;;;;5029389;28;20037;-79
2023/12/27 13:10:31;;;;;;;0.60;0.50;;;;;;;;;;5036993;28;20139;-79
2023/12/27 13:12:58;;;;;;;0.52;0.52;;;;;;;;;;5040927;28;20029;-79
2023/12/27 13:15:24;;;;;;;0.60;0.60;;;;;;;;;;5043446;28;20036;-77
2023/12/27 13:17:50;;;;;;;0.90;0.70;;;;;;;;;;5052651;28;20035;-78
2023/12/27 13:20:17;;;;;;;1.00;0.88;;;;;;;;;;5054283;28;20097;-78
2023/12/27 13:22:43;;;;;;;0.70;0.70;;;;;;;;;;5047337;28;20022;-77
2023/12/27 13:25:12;;;;;;;0.60;0.60;;;;;;;;;;5047125;28;20111;-77
2023/12/27 13:27:38;;;;;;;0.50;0.50;;;;;;;;;;5044621;28;20026;-79
2023/12/27 13:30:05;;;;;;;0.40;0.40;;;;;;;;;;5034512;28;20495;-80
2023/12/27 13:32:31;;;;;;;0.80;0.70;;;;;;;;;;5033943;28;20030;-79
2023/12/27 13:34:58;;;;;;;0.90;0.70;;;;;;;;;;5018547;28;20030;-79
2023/12/27 13:37:24;;;;;;;0.93;0.77;;;;;;;;;;5026343;28;20064;-79
2023/12/27 13:39:50;;;;;;;0.75;0.63;;;;;;;;;;5029111;28;20030;-80
2023/12/27 13:42:16;;;;;;;0.50;0.50;;;;;;;;;;5037394;28;20017;-79
2023/12/27 13:44:42;;;;;;;0.68;0.50;;;;;;;;;;5038399;28;20032;-79
2023/12/27 13:47:08;;;;;;;0.38;0.38;;;;;;;;;;5036417;28;20045;-79
2023/12/27 13:49:35;;;;;;;0.45;0.45;;;;;;;;;;5031168;28;20030;-79
2023/12/27 13:52:02;;;;;;;0.38;0.38;;;;;;;;;;5026183;28;20105;-80
2023/12/27 13:54:28;;;;;;;0.60;0.60;;;;;;;;;;5034173;28;20032;-80
2023/12/27 13:56:54;;;;;;;0.65;0.65;;;;;;;;;;5035387;28;20402;-79
2023/12/27 13:59:21;;;;;;;0.63;0.55;;;;;;;;;;5033716;28;20034;-78
2023/12/27 14:01:47;;;;;;;0.70;0.70;;;;;;;;;;5036428;28;20029;-79
2023/12/27 14:04:13;;;;;;;0.50;0.50;;;;;;;;;;5045284;28;20013;-82
2023/12/27 14:06:39;;;;;;;0.35;0.32;;;;;;;;;;5048260;28;20036;-83
2023/12/27 14:09:08;;;;;;;0.95;0.43;;;;;;;;;;5042959;28;20026;-82
2023/12/27 14:11:35;;;;;;;0.40;0.40;;;;;;;;;;5045995;28;20018;-82
2023/12/27 14:14:03;;;;;;;0.50;0.50;;;;;;;;;;5045968;28;20076;-82
2023/12/27 14:16:30;;;;;;;0.75;0.60;;;;;;;;;;5035667;28;20059;-82
2023/12/27 14:18:59;;;;;;;0.85;0.68;;;;;;;;;;5036307;28;20045;-81
2023/12/27 14:21:26;;;;;;;0.47;0.45;;;;;;;;;;5028549;28;20104;-81
2023/12/27 14:23:53;;;;;;;0.70;0.70;;;;;;;;;;5029017;28;20083;-81
2023/12/27 14:26:19;;;;;;;0.82;0.70;;;;;;;;;;5040872;28;20033;-83
2023/12/27 14:28:49;;;;;;;0.75;0.50;;;;;;;;;;5030249;28;20065;-82
2023/12/27 14:31:16;;;;;;;0.50;0.50;;;;;;;;;;5041940;28;20025;-82
2023/12/27 14:33:44;;;;;;;1.02;0.77;;;;;;;;;;5047485;28;20048;-81
2023/12/27 14:36:11;;;;;;;0.60;0.60;;;;;;;;;;5039424;28;20036;-82
2023/12/27 14:38:38;;;;;;;0.50;0.50;;;;;;;;;;5039344;28;20014;-81
2023/12/27 14:41:06;;;;;;;0.63;0.63;;;;;;;;;;5042337;28;20022;-82